createdAt,value
2023-05-14T00:00:45.878Z,0.00
2023-05-14T00:01:45.887Z,0.00
2023-05-14T00:02:45.957Z,0.00
2023-05-14T00:03:45.910Z,0.00
2023-05-14T00:04:45.834Z,0.00
2023-05-14T00:05:45.818Z,0.00
2023-05-14T00:06:45.813Z,0.00
2023-05-14T00:07:45.810Z,0.00
2023-05-14T00:08:45.792Z,0.00
2023-05-14T00:09:45.784Z,0.00
2023-05-14T00:10:45.784Z,0.00
2023-05-14T00:11:45.747Z,0.00
2023-05-14T00:12:45.764Z,0.00
2023-05-14T00:13:45.759Z,0.00
2023-05-14T00:14:45.722Z,0.00
2023-05-14T00:15:45.782Z,0.00
2023-05-14T00:16:45.696Z,0.00
2023-05-14T00:17:45.769Z,0.00
2023-05-14T00:18:45.697Z,0.00
2023-05-14T00:19:45.665Z,0.00
2023-05-14T00:20:45.671Z,0.00
2023-05-14T00:21:45.646Z,0.00
2023-05-14T00:22:45.664Z,0.00
2023-05-14T00:23:45.628Z,0.00
2023-05-14T00:24:45.613Z,0.00
2023-05-14T00:25:45.621Z,0.00
2023-05-14T00:26:45.615Z,0.00
2023-05-14T00:27:45.575Z,0.00
2023-05-14T00:28:45.560Z,0.00
2023-05-14T00:29:45.571Z,0.00
2023-05-14T00:30:45.537Z,0.00
2023-05-14T00:31:45.630Z,0.00
2023-05-14T00:32:45.557Z,0.00
2023-05-14T00:33:45.515Z,0.00
2023-05-14T00:34:45.513Z,0.00
2023-05-14T00:35:45.497Z,0.00
2023-05-14T00:36:45.472Z,0.00
2023-05-14T00:37:45.471Z,0.00
2023-05-14T00:38:45.446Z,0.00
2023-05-14T00:39:45.453Z,0.00
2023-05-14T00:40:45.447Z,0.00
2023-05-14T00:41:45.410Z,0.00
2023-05-14T00:42:45.429Z,0.00
2023-05-14T00:43:45.404Z,0.00
2023-05-14T00:44:45.382Z,0.00
2023-05-14T00:45:45.367Z,0.00
2023-05-14T00:46:45.378Z,0.00
2023-05-14T00:47:45.387Z,0.00
2023-05-14T00:48:45.347Z,0.00
2023-05-14T00:49:45.323Z,0.00
2023-05-14T00:50:45.323Z,0.00
2023-05-14T00:51:45.309Z,0.00
2023-05-14T00:52:45.350Z,0.00
2023-05-14T00:53:45.285Z,0.00
2023-05-14T00:54:45.275Z,0.00
2023-05-14T00:55:45.271Z,0.00
2023-05-14T00:56:45.272Z,0.00
2023-05-14T00:57:45.287Z,0.00
2023-05-14T00:58:45.242Z,0.00
2023-05-14T00:59:45.223Z,0.00
2023-05-14T01:00:45.283Z,0.00
2023-05-14T01:01:45.194Z,0.00
2023-05-14T01:02:45.258Z,0.00
2023-05-14T01:03:45.317Z,0.00
2023-05-14T01:04:45.162Z,0.00
2023-05-14T01:05:45.145Z,0.00
2023-05-14T01:06:45.151Z,0.00
2023-05-14T01:07:45.136Z,0.00
2023-05-14T01:08:45.122Z,0.00
2023-05-14T01:09:45.127Z,0.00
2023-05-14T01:10:45.087Z,0.00
2023-05-14T01:11:45.076Z,0.00
2023-05-14T01:12:45.079Z,0.00
2023-05-14T01:13:45.061Z,0.00
2023-05-14T01:14:45.087Z,0.00
2023-05-14T01:15:45.026Z,0.00
2023-05-14T01:16:45.062Z,0.00
2023-05-14T01:17:45.051Z,0.00
2023-05-14T01:18:45.044Z,0.00
2023-05-14T01:19:45.012Z,0.00
2023-05-14T01:20:44.984Z,0.00
2023-05-14T01:21:44.961Z,0.00
2023-05-14T01:22:44.965Z,0.00
2023-05-14T01:23:44.938Z,0.00
2023-05-14T01:24:44.946Z,0.00
2023-05-14T01:25:44.941Z,0.00
2023-05-14T01:26:44.908Z,0.00
2023-05-14T01:27:44.893Z,0.00
2023-05-14T01:28:44.888Z,0.00
2023-05-14T01:29:44.869Z,0.00
2023-05-14T01:30:44.903Z,0.00
2023-05-14T01:31:44.860Z,0.00
2023-05-14T01:32:44.899Z,0.00
2023-05-14T01:33:44.824Z,0.00
2023-05-14T01:34:44.814Z,0.00
2023-05-14T01:35:44.822Z,0.00
2023-05-14T01:36:44.832Z,0.00
2023-05-14T01:37:44.806Z,0.00
2023-05-14T01:38:44.770Z,0.00
2023-05-14T01:39:44.757Z,0.00
2023-05-14T01:40:44.752Z,0.00
2023-05-14T01:41:44.733Z,0.00
2023-05-14T01:42:44.785Z,0.00
2023-05-14T01:43:44.719Z,0.00
2023-05-14T01:44:44.699Z,0.00
2023-05-14T01:45:44.765Z,0.00
2023-05-14T01:46:44.736Z,0.00
2023-05-14T01:47:44.696Z,0.00
2023-05-14T01:48:44.665Z,0.00
2023-05-14T01:49:44.676Z,0.00
2023-05-14T01:50:44.647Z,0.00
2023-05-14T01:51:44.664Z,0.00
2023-05-14T01:52:44.609Z,0.00
2023-05-14T01:53:44.598Z,0.00
2023-05-14T01:54:44.591Z,0.00
2023-05-14T01:55:44.593Z,0.00
2023-05-14T01:56:44.575Z,0.00
2023-05-14T01:57:44.547Z,0.00
2023-05-14T01:58:44.566Z,0.00
2023-05-14T01:59:44.536Z,0.00
2023-05-14T02:00:44.519Z,0.00
2023-05-14T02:01:44.585Z,0.00
2023-05-14T02:02:44.551Z,0.00
2023-05-14T02:03:44.557Z,0.00
2023-05-14T02:04:44.472Z,0.00
2023-05-14T02:05:44.462Z,0.00
2023-05-14T02:06:44.452Z,0.00
2023-05-14T02:07:44.465Z,0.00
2023-05-14T02:08:44.432Z,0.00
2023-05-14T02:09:44.430Z,0.00
2023-05-14T02:10:44.406Z,0.00
2023-05-14T02:11:44.393Z,0.00
2023-05-14T02:12:44.390Z,0.00
2023-05-14T02:13:44.399Z,0.00
2023-05-14T02:14:44.365Z,0.00
2023-05-14T02:15:44.377Z,0.00
2023-05-14T02:16:44.345Z,0.00
2023-05-14T02:17:44.390Z,0.00
2023-05-14T02:18:44.387Z,0.00
2023-05-14T02:19:44.319Z,0.00
2023-05-14T02:20:44.301Z,0.00
2023-05-14T02:21:44.298Z,0.00
2023-05-14T02:22:44.279Z,0.00
2023-05-14T02:23:44.276Z,0.00
2023-05-14T02:24:44.248Z,0.00
2023-05-14T02:25:44.240Z,0.00
2023-05-14T02:26:44.229Z,0.00
2023-05-14T02:27:44.211Z,0.00
2023-05-14T02:28:44.223Z,0.00
2023-05-14T02:29:44.208Z,0.00
2023-05-14T02:30:44.186Z,0.00
2023-05-14T02:31:44.191Z,0.00
2023-05-14T02:32:44.287Z,0.00
2023-05-14T02:33:44.169Z,0.00
2023-05-14T02:34:44.156Z,0.00
2023-05-14T02:35:44.123Z,0.00
2023-05-14T02:36:44.115Z,0.00
2023-05-14T02:37:44.104Z,0.00
2023-05-14T02:38:44.090Z,0.00
2023-05-14T02:39:44.075Z,0.00
2023-05-14T02:40:44.073Z,0.00
2023-05-14T02:41:44.060Z,0.00
2023-05-14T02:42:44.053Z,0.00
2023-05-14T02:43:44.032Z,0.00
2023-05-14T02:44:44.032Z,0.00
2023-05-14T02:45:44.034Z,0.00
2023-05-14T02:46:44.055Z,0.00
2023-05-14T02:47:44.019Z,0.00
2023-05-14T02:48:43.982Z,0.00
2023-05-14T02:49:43.998Z,0.00
2023-05-14T02:50:43.988Z,0.00
2023-05-14T02:51:43.946Z,0.00
2023-05-14T02:52:43.941Z,0.00
2023-05-14T02:53:43.926Z,0.00
2023-05-14T02:54:43.924Z,0.00
2023-05-14T02:55:43.902Z,0.00
2023-05-14T02:56:43.955Z,0.00
2023-05-14T02:57:43.884Z,0.00
2023-05-14T02:58:43.876Z,0.00
2023-05-14T02:59:43.852Z,0.00
2023-05-14T03:00:43.912Z,0.00
2023-05-14T03:01:43.862Z,0.00
2023-05-14T03:02:44.075Z,0.00
2023-05-14T03:03:43.818Z,0.00
2023-05-14T03:04:43.804Z,0.00
2023-05-14T03:05:43.788Z,0.00
2023-05-14T03:06:43.794Z,0.00
2023-05-14T03:07:43.792Z,0.00
2023-05-14T03:08:43.762Z,0.00
2023-05-14T03:09:43.739Z,4.00
2023-05-14T03:10:43.733Z,0.00
2023-05-14T03:11:43.727Z,0.00
2023-05-14T03:12:43.736Z,0.00
2023-05-14T03:13:43.691Z,4.00
2023-05-14T03:14:43.689Z,0.00
2023-05-14T03:15:43.676Z,0.00
2023-05-14T03:16:43.710Z,4.00
2023-05-14T03:17:43.672Z,4.00
2023-05-14T03:18:43.667Z,4.00
2023-05-14T03:19:43.631Z,4.00
2023-05-14T03:20:43.618Z,4.00
2023-05-14T03:21:43.605Z,4.00
2023-05-14T03:22:43.617Z,4.00
2023-05-14T03:23:43.614Z,4.00
2023-05-14T03:24:43.572Z,8.00
2023-05-14T03:25:43.583Z,8.00
2023-05-14T03:26:43.548Z,8.00
2023-05-14T03:27:43.566Z,8.00
2023-05-14T03:28:43.524Z,12.00
2023-05-14T03:29:43.537Z,12.00
2023-05-14T03:30:43.532Z,8.00
2023-05-14T03:31:43.486Z,12.00
2023-05-14T03:32:43.517Z,16.00
2023-05-14T03:33:43.472Z,16.00
2023-05-14T03:34:43.458Z,12.00
2023-05-14T03:35:43.445Z,16.00
2023-05-14T03:36:43.447Z,24.00
2023-05-14T03:37:43.416Z,20.00
2023-05-14T03:38:43.451Z,20.00
2023-05-14T03:39:43.403Z,24.00
2023-05-14T03:40:43.388Z,32.00
2023-05-14T03:41:43.375Z,28.00
2023-05-14T03:42:43.383Z,28.00
2023-05-14T03:43:43.372Z,36.00
2023-05-14T03:44:43.344Z,40.00
2023-05-14T03:45:43.335Z,36.00
2023-05-14T03:46:43.321Z,44.00
2023-05-14T03:47:43.385Z,52.00
2023-05-14T03:48:43.333Z,48.00
2023-05-14T03:49:43.310Z,52.00
2023-05-14T03:50:43.280Z,64.00
2023-05-14T03:51:43.272Z,60.00
2023-05-14T03:52:43.258Z,56.00
2023-05-14T03:53:43.246Z,72.00
2023-05-14T03:54:43.276Z,76.00
2023-05-14T03:55:43.221Z,64.00
2023-05-14T03:56:43.204Z,76.00
2023-05-14T03:57:43.197Z,92.00
2023-05-14T03:58:43.202Z,80.00
2023-05-14T03:59:43.173Z,88.00
2023-05-14T04:00:43.188Z,108.00
2023-05-14T04:01:43.154Z,100.00
2023-05-14T04:02:43.226Z,92.00
2023-05-14T04:03:43.382Z,112.00
2023-05-14T04:04:43.177Z,120.00
2023-05-14T04:05:43.108Z,104.00
2023-05-14T04:06:43.092Z,128.00
2023-05-14T04:07:43.084Z,148.00
2023-05-14T04:08:43.072Z,132.00
2023-05-14T04:09:43.073Z,136.00
2023-05-14T04:10:43.075Z,164.00
2023-05-14T04:11:43.036Z,152.00
2023-05-14T04:12:43.034Z,140.00
2023-05-14T04:13:43.019Z,172.00
2023-05-14T04:14:43.012Z,180.00
2023-05-14T04:15:42.986Z,156.00
2023-05-14T04:16:43.029Z,180.00
2023-05-14T04:17:42.994Z,208.00
2023-05-14T04:18:42.987Z,180.00
2023-05-14T04:19:42.958Z,196.00
2023-05-14T04:20:42.942Z,228.00
2023-05-14T04:21:42.926Z,208.00
2023-05-14T04:22:42.918Z,200.00
2023-05-14T04:23:42.901Z,224.00
2023-05-14T04:24:42.903Z,240.00
2023-05-14T04:25:42.883Z,212.00
2023-05-14T04:26:42.887Z,232.00
2023-05-14T04:27:42.864Z,268.00
2023-05-14T04:28:42.838Z,252.00
2023-05-14T04:29:42.828Z,256.00
2023-05-14T04:30:42.832Z,292.00
2023-05-14T04:31:42.861Z,296.00
2023-05-14T04:32:42.851Z,272.00
2023-05-14T04:33:42.802Z,292.00
2023-05-14T04:34:42.790Z,340.00
2023-05-14T04:35:42.790Z,312.00
2023-05-14T04:36:42.770Z,328.00
2023-05-14T04:37:42.736Z,360.00
2023-05-14T04:38:42.733Z,380.00
2023-05-14T04:39:42.712Z,348.00
2023-05-14T04:40:42.701Z,404.00
2023-05-14T04:41:42.704Z,456.00
2023-05-14T04:42:42.727Z,448.00
2023-05-14T04:43:42.670Z,452.00
2023-05-14T04:44:42.661Z,560.00
2023-05-14T04:45:42.694Z,552.00
2023-05-14T04:46:42.637Z,532.00
2023-05-14T04:47:42.662Z,620.00
2023-05-14T04:48:42.629Z,660.00
2023-05-14T04:49:42.601Z,636.00
2023-05-14T04:50:42.597Z,684.00
2023-05-14T04:51:42.580Z,704.00
2023-05-14T04:52:42.573Z,716.00
2023-05-14T04:53:42.563Z,676.00
2023-05-14T04:54:42.586Z,704.00
2023-05-14T04:55:42.542Z,788.00
2023-05-14T04:56:42.523Z,772.00
2023-05-14T04:57:42.506Z,768.00
2023-05-14T04:58:42.532Z,852.00
2023-05-14T04:59:42.499Z,860.00
2023-05-14T05:00:42.474Z,796.00
2023-05-14T05:01:42.613Z,812.00
2023-05-14T05:02:42.473Z,912.00
2023-05-14T05:03:42.498Z,944.00
2023-05-14T05:04:42.446Z,920.00
2023-05-14T05:05:42.420Z,924.00
2023-05-14T05:06:42.424Z,1044.00
2023-05-14T05:07:42.400Z,1012.00
2023-05-14T05:08:42.383Z,972.00
2023-05-14T05:09:42.374Z,952.00
2023-05-14T05:10:42.362Z,1012.00
2023-05-14T05:11:42.382Z,1076.00
2023-05-14T05:12:42.346Z,1092.00
2023-05-14T05:13:42.331Z,1356.00
2023-05-14T05:14:42.336Z,1564.00
2023-05-14T05:15:42.348Z,1724.00
2023-05-14T05:16:42.315Z,1824.00
2023-05-14T05:17:42.315Z,1880.00
2023-05-14T05:18:42.299Z,2012.00
2023-05-14T05:19:44.338Z,2088.00
2023-05-14T05:20:42.251Z,2388.00
2023-05-14T05:21:42.271Z,2604.00
2023-05-14T05:22:42.236Z,2788.00
2023-05-14T05:23:42.222Z,2944.00
2023-05-14T05:24:42.208Z,3000.00
2023-05-14T05:25:42.219Z,2816.00
2023-05-14T05:26:42.181Z,3160.00
2023-05-14T05:27:42.211Z,5040.00
2023-05-14T05:28:42.167Z,5980.00
2023-05-14T05:29:42.153Z,5656.00
2023-05-14T05:30:42.166Z,4368.00
2023-05-14T05:31:42.153Z,5004.00
2023-05-14T05:32:42.145Z,5256.00
2023-05-14T05:33:42.145Z,4912.00
2023-05-14T05:34:42.103Z,5336.00
2023-05-14T05:35:42.086Z,5388.00
2023-05-14T05:36:42.076Z,5812.00
2023-05-14T05:37:42.060Z,6356.00
2023-05-14T05:38:42.047Z,5976.00
2023-05-14T05:39:42.054Z,4524.00
2023-05-14T05:40:42.024Z,3712.00
2023-05-14T05:41:42.019Z,4656.00
2023-05-14T05:42:42.009Z,9588.00
2023-05-14T05:43:41.997Z,11572.00
2023-05-14T05:44:41.992Z,9916.00
2023-05-14T05:45:41.974Z,6416.00
2023-05-14T05:46:42.011Z,4580.00
2023-05-14T05:47:41.990Z,3732.00
2023-05-14T05:48:41.954Z,4000.00
2023-05-14T05:49:41.937Z,4768.00
2023-05-14T05:50:41.908Z,4416.00
2023-05-14T05:51:41.907Z,7168.00
2023-05-14T05:52:41.961Z,9724.00
2023-05-14T05:53:41.878Z,10944.00
2023-05-14T05:54:41.960Z,10680.00
2023-05-14T05:55:41.875Z,10460.00
2023-05-14T05:56:41.844Z,10616.00
2023-05-14T05:57:41.829Z,9320.00
2023-05-14T05:58:41.814Z,8600.00
2023-05-14T05:59:41.808Z,9896.00
2023-05-14T06:00:41.791Z,10816.00
2023-05-14T06:01:41.812Z,12016.00
2023-05-14T06:02:41.918Z,12832.00
2023-05-14T06:03:41.760Z,12544.00
2023-05-14T06:04:41.752Z,10068.00
2023-05-14T06:05:41.867Z,10876.00
2023-05-14T06:06:41.726Z,12096.00
2023-05-14T06:07:41.728Z,12576.00
2023-05-14T06:08:41.723Z,11732.00
2023-05-14T06:09:41.705Z,12240.00
2023-05-14T06:10:41.684Z,12288.00
2023-05-14T06:11:41.712Z,11696.00
2023-05-14T06:12:41.666Z,10160.00
2023-05-14T06:13:41.648Z,10232.00
2023-05-14T06:14:41.635Z,11224.00
2023-05-14T06:15:41.664Z,10924.00
2023-05-14T06:16:41.703Z,7248.00
2023-05-14T06:17:41.704Z,7320.00
2023-05-14T06:18:41.651Z,7216.00
2023-05-14T06:19:41.582Z,3788.00
2023-05-14T06:20:41.579Z,6068.00
2023-05-14T06:21:41.573Z,11980.00
2023-05-14T06:22:41.583Z,6688.00
2023-05-14T06:23:41.540Z,9192.00
2023-05-14T06:24:41.526Z,10552.00
2023-05-14T06:25:41.519Z,7096.00
2023-05-14T06:26:41.502Z,12608.00
2023-05-14T06:27:41.495Z,13824.00
2023-05-14T06:28:41.509Z,11776.00
2023-05-14T06:29:41.468Z,13152.00
2023-05-14T06:30:41.460Z,13568.00
2023-05-14T06:31:41.470Z,11968.00
2023-05-14T06:32:41.499Z,7108.00
2023-05-14T06:33:41.431Z,5688.00
2023-05-14T06:34:41.489Z,12800.00
2023-05-14T06:35:41.400Z,13856.00
2023-05-14T06:36:41.393Z,14624.00
2023-05-14T06:37:41.388Z,9944.00
2023-05-14T06:38:41.389Z,3668.00
2023-05-14T06:39:41.355Z,4492.00
2023-05-14T06:40:41.338Z,10944.00
2023-05-14T06:41:41.345Z,8000.00
2023-05-14T06:42:41.323Z,16000.00
2023-05-14T06:43:41.311Z,17600.00
2023-05-14T06:44:41.312Z,15456.00
2023-05-14T06:45:41.290Z,18528.00
2023-05-14T06:46:41.283Z,21216.00
2023-05-14T06:47:41.348Z,22048.00
2023-05-14T06:48:41.275Z,10724.00
2023-05-14T06:49:41.240Z,5288.00
2023-05-14T06:50:41.247Z,3784.00
2023-05-14T06:51:41.251Z,4176.00
2023-05-14T06:52:41.204Z,3624.00
2023-05-14T06:53:41.200Z,4740.00
2023-05-14T06:54:41.183Z,5108.00
2023-05-14T06:55:41.183Z,4248.00
2023-05-14T06:56:41.158Z,3708.00
2023-05-14T06:57:41.191Z,3592.00
2023-05-14T06:58:41.166Z,3172.00
2023-05-14T06:59:41.129Z,3136.00
2023-05-14T07:00:41.115Z,3128.00
2023-05-14T07:01:41.213Z,3264.00
2023-05-14T07:02:41.161Z,3792.00
2023-05-14T07:03:41.119Z,3704.00
2023-05-14T07:04:41.196Z,3540.00
2023-05-14T07:05:41.075Z,4004.00
2023-05-14T07:06:41.075Z,4284.00
2023-05-14T07:07:41.049Z,4544.00
2023-05-14T07:08:41.032Z,3432.00
2023-05-14T07:09:41.017Z,3888.00
2023-05-14T07:10:41.001Z,4380.00
2023-05-14T07:11:40.993Z,4352.00
2023-05-14T07:12:40.987Z,4660.00
2023-05-14T07:13:40.980Z,3740.00
2023-05-14T07:14:40.989Z,4796.00
2023-05-14T07:15:40.948Z,3788.00
2023-05-14T07:16:40.980Z,4360.00
2023-05-14T07:17:40.968Z,3376.00
2023-05-14T07:18:41.007Z,3836.00
2023-05-14T07:19:40.915Z,4292.00
2023-05-14T07:20:40.899Z,4160.00
2023-05-14T07:21:40.884Z,3940.00
2023-05-14T07:22:40.907Z,3804.00
2023-05-14T07:23:40.859Z,3848.00
2023-05-14T07:24:40.867Z,3928.00
2023-05-14T07:25:40.853Z,3892.00
2023-05-14T07:26:40.833Z,3912.00
2023-05-14T07:27:40.829Z,3600.00
2023-05-14T07:28:40.800Z,3660.00
2023-05-14T07:29:40.791Z,3672.00
2023-05-14T07:30:40.792Z,3656.00
2023-05-14T07:31:40.815Z,3652.00
2023-05-14T07:32:40.790Z,3700.00
2023-05-14T07:33:40.744Z,3736.00
2023-05-14T07:34:40.743Z,3728.00
2023-05-14T07:35:40.722Z,3724.00
2023-05-14T07:36:40.730Z,3696.00
2023-05-14T07:37:40.716Z,3692.00
2023-05-14T07:38:40.713Z,3664.00
2023-05-14T07:39:40.681Z,3660.00
2023-05-14T07:40:40.670Z,3680.00
2023-05-14T07:41:40.663Z,3720.00
2023-05-14T07:42:40.661Z,3760.00
2023-05-14T07:43:40.677Z,3788.00
2023-05-14T07:44:40.618Z,3808.00
2023-05-14T07:45:40.629Z,3888.00
2023-05-14T07:46:40.600Z,3716.00
2023-05-14T07:47:40.867Z,3680.00
2023-05-14T07:48:40.658Z,3728.00
2023-05-14T07:49:40.573Z,3728.00
2023-05-14T07:50:40.561Z,3708.00
2023-05-14T07:51:40.573Z,3676.00
2023-05-14T07:52:40.529Z,3632.00
2023-05-14T07:53:40.546Z,3640.00
2023-05-14T07:54:40.530Z,3648.00
2023-05-14T07:55:40.520Z,3580.00
2023-05-14T07:56:40.494Z,3344.00
2023-05-14T07:57:40.482Z,3304.00
2023-05-14T07:58:40.463Z,3408.00
2023-05-14T07:59:40.474Z,3448.00
2023-05-14T08:00:40.454Z,3492.00
2023-05-14T08:01:40.431Z,3472.00
2023-05-14T08:02:40.548Z,3476.00
2023-05-14T08:03:40.493Z,3496.00
2023-05-14T08:04:40.429Z,3580.00
2023-05-14T08:05:40.394Z,3524.00
2023-05-14T08:06:40.371Z,3308.00
2023-05-14T08:07:40.378Z,3340.00
2023-05-14T08:08:40.385Z,3340.00
2023-05-14T08:09:40.359Z,3472.00
2023-05-14T08:10:40.387Z,3444.00
2023-05-14T08:11:40.340Z,3444.00
2023-05-14T08:12:40.312Z,3584.00
2023-05-14T08:13:40.303Z,3652.00
2023-05-14T08:14:40.283Z,3664.00
2023-05-14T08:15:40.288Z,3696.00
2023-05-14T08:16:40.359Z,3664.00
2023-05-14T08:17:40.281Z,3620.00
2023-05-14T08:18:40.305Z,3676.00
2023-05-14T08:19:40.232Z,3664.00
2023-05-14T08:20:40.219Z,3548.00
2023-05-14T08:21:40.211Z,3484.00
2023-05-14T08:22:40.213Z,3300.00
2023-05-14T08:23:40.194Z,3328.00
2023-05-14T08:24:40.174Z,3296.00
2023-05-14T08:25:40.167Z,3256.00
2023-05-14T08:26:40.170Z,3240.00
2023-05-14T08:27:40.141Z,3312.00
2023-05-14T08:28:40.150Z,3124.00
2023-05-14T08:29:40.124Z,2960.00
2023-05-14T08:30:40.116Z,3056.00
2023-05-14T08:31:40.104Z,3208.00
2023-05-14T08:32:40.103Z,3352.00
2023-05-14T08:33:40.088Z,3408.00
2023-05-14T08:34:40.412Z,3516.00
2023-05-14T08:35:40.075Z,3696.00
2023-05-14T08:36:40.042Z,3844.00
2023-05-14T08:37:40.042Z,3912.00
2023-05-14T08:38:40.020Z,4300.00
2023-05-14T08:39:40.023Z,4468.00
2023-05-14T08:40:40.056Z,4356.00
2023-05-14T08:41:39.992Z,4164.00
2023-05-14T08:42:40.003Z,4236.00
2023-05-14T08:43:39.964Z,4076.00
2023-05-14T08:44:39.970Z,3976.00
2023-05-14T08:45:39.938Z,4232.00
2023-05-14T08:46:39.936Z,4256.00
2023-05-14T08:47:39.982Z,4144.00
2023-05-14T08:48:39.920Z,4084.00
2023-05-14T08:49:39.920Z,3960.00
2023-05-14T08:50:39.886Z,4020.00
2023-05-14T08:51:39.874Z,4052.00
2023-05-14T08:52:39.858Z,3660.00
2023-05-14T08:53:39.847Z,3708.00
2023-05-14T08:54:39.833Z,3848.00
2023-05-14T08:55:39.849Z,4024.00
2023-05-14T08:56:39.816Z,4028.00
2023-05-14T08:57:39.816Z,3596.00
2023-05-14T08:58:39.836Z,3660.00
2023-05-14T08:59:39.799Z,3584.00
2023-05-14T09:00:39.768Z,3736.00
2023-05-14T09:01:39.802Z,3964.00
2023-05-14T09:02:39.840Z,3996.00
2023-05-14T09:03:39.816Z,3788.00
2023-05-14T09:04:39.735Z,3684.00
2023-05-14T09:05:39.739Z,3648.00
2023-05-14T09:06:39.713Z,3848.00
2023-05-14T09:07:39.685Z,3932.00
2023-05-14T09:08:39.678Z,3564.00
2023-05-14T09:09:39.675Z,3568.00
2023-05-14T09:10:39.658Z,3740.00
2023-05-14T09:11:39.661Z,3896.00
2023-05-14T09:12:39.648Z,3932.00
2023-05-14T09:13:39.629Z,3548.00
2023-05-14T09:14:39.630Z,3860.00
2023-05-14T09:15:39.606Z,3812.00
2023-05-14T09:16:39.717Z,3832.00
2023-05-14T09:17:39.585Z,3636.00
2023-05-14T09:18:39.628Z,3816.00
2023-05-14T09:19:39.557Z,3904.00
2023-05-14T09:20:39.541Z,3920.00
2023-05-14T09:21:39.549Z,3792.00
2023-05-14T09:22:39.530Z,3764.00
2023-05-14T09:23:39.519Z,3728.00
2023-05-14T09:24:39.502Z,3764.00
2023-05-14T09:25:39.488Z,3728.00
2023-05-14T09:26:39.489Z,3752.00
2023-05-14T09:27:39.457Z,4152.00
2023-05-14T09:28:39.464Z,3944.00
2023-05-14T09:29:39.460Z,3676.00
2023-05-14T09:30:39.461Z,3748.00
2023-05-14T09:31:39.521Z,3668.00
2023-05-14T09:32:39.478Z,4188.00
2023-05-14T09:33:39.406Z,3872.00
2023-05-14T09:34:39.397Z,3892.00
2023-05-14T09:35:39.371Z,3620.00
2023-05-14T09:36:39.386Z,3556.00
2023-05-14T09:37:39.360Z,3236.00
2023-05-14T09:38:39.350Z,3408.00
2023-05-14T09:39:39.325Z,3652.00
2023-05-14T09:40:39.315Z,3628.00
2023-05-14T09:41:39.300Z,4140.00
2023-05-14T09:42:39.301Z,4068.00
2023-05-14T09:43:39.296Z,3808.00
2023-05-14T09:44:39.277Z,3624.00
2023-05-14T09:45:39.254Z,3616.00
2023-05-14T09:46:39.277Z,3516.00
2023-05-14T09:47:39.409Z,3476.00
2023-05-14T09:48:39.291Z,3492.00
2023-05-14T09:49:39.211Z,3696.00
2023-05-14T09:50:39.207Z,4028.00
2023-05-14T09:51:39.219Z,3636.00
2023-05-14T09:52:39.236Z,3668.00
2023-05-14T09:53:39.174Z,3488.00
2023-05-14T09:54:39.160Z,3700.00
2023-05-14T09:55:39.150Z,3436.00
2023-05-14T09:56:39.148Z,3684.00
2023-05-14T09:57:39.130Z,3640.00
2023-05-14T09:58:39.149Z,3432.00
2023-05-14T09:59:39.104Z,3532.00
2023-05-14T10:00:39.100Z,3604.00
2023-05-14T10:01:39.126Z,3664.00
2023-05-14T10:02:39.114Z,3476.00
2023-05-14T10:03:39.061Z,3520.00
2023-05-14T10:04:39.097Z,3608.00
2023-05-14T10:05:39.047Z,3536.00
2023-05-14T10:06:39.025Z,3516.00
2023-05-14T10:07:39.009Z,3856.00
2023-05-14T10:08:39.095Z,3572.00
2023-05-14T10:09:38.995Z,3664.00
2023-05-14T10:10:38.989Z,3644.00
2023-05-14T10:11:39.004Z,3612.00
2023-05-14T10:12:38.960Z,3584.00
2023-05-14T10:13:38.947Z,3544.00
2023-05-14T10:14:38.998Z,3680.00
2023-05-14T10:15:38.931Z,3668.00
2023-05-14T10:16:38.969Z,3616.00
2023-05-14T10:17:38.962Z,3528.00
2023-05-14T10:18:38.928Z,3684.00
2023-05-14T10:19:38.909Z,3712.00
2023-05-14T10:20:38.912Z,3664.00
2023-05-14T10:21:38.863Z,3540.00
2023-05-14T10:22:38.853Z,3496.00
2023-05-14T10:23:38.836Z,3752.00
2023-05-14T10:24:38.882Z,3768.00
2023-05-14T10:25:38.809Z,3520.00
2023-05-14T10:26:38.821Z,3436.00
2023-05-14T10:27:38.838Z,3900.00
2023-05-14T10:28:38.784Z,3508.00
2023-05-14T10:29:38.762Z,3488.00
2023-05-14T10:30:38.769Z,3684.00
2023-05-14T10:31:38.919Z,3344.00
2023-05-14T10:32:38.808Z,3212.00
2023-05-14T10:33:38.739Z,3152.00
2023-05-14T10:34:38.931Z,3272.00
2023-05-14T10:35:38.697Z,3192.00
2023-05-14T10:36:38.718Z,3068.00
2023-05-14T10:37:38.672Z,3160.00
2023-05-14T10:38:38.672Z,3176.00
2023-05-14T10:39:38.655Z,3084.00
2023-05-14T10:40:38.653Z,3080.00
2023-05-14T10:41:38.631Z,3200.00
2023-05-14T10:42:38.649Z,3212.00
2023-05-14T10:43:38.656Z,3032.00
2023-05-14T10:44:38.610Z,2864.00
2023-05-14T10:45:38.585Z,3104.00
2023-05-14T10:46:38.623Z,2992.00
2023-05-14T10:47:38.590Z,2888.00
2023-05-14T10:48:38.589Z,3044.00
2023-05-14T10:49:43.546Z,3028.00
2023-05-14T10:50:39.564Z,3144.00
2023-05-14T10:51:38.560Z,3088.00
2023-05-14T10:52:38.550Z,3072.00
2023-05-14T10:53:38.493Z,3048.00
2023-05-14T10:54:38.484Z,3100.00
2023-05-14T10:55:38.486Z,3052.00
2023-05-14T10:56:38.478Z,2896.00
2023-05-14T10:57:38.461Z,2888.00
2023-05-14T10:58:38.486Z,2912.00
2023-05-14T10:59:38.425Z,3064.00
2023-05-14T11:00:38.423Z,3008.00
2023-05-14T11:01:38.456Z,2884.00
2023-05-14T11:02:38.456Z,2932.00
2023-05-14T11:03:38.430Z,3028.00
2023-05-14T11:04:38.394Z,2792.00
2023-05-14T11:05:38.358Z,2748.00
2023-05-14T11:06:38.373Z,2808.00
2023-05-14T11:07:38.343Z,2640.00
2023-05-14T11:08:38.348Z,2808.00
2023-05-14T11:09:38.332Z,2800.00
2023-05-14T11:10:38.314Z,2984.00
2023-05-14T11:11:38.300Z,3036.00
2023-05-14T11:12:38.300Z,1988.00
2023-05-14T11:13:38.297Z,2756.00
2023-05-14T11:14:38.267Z,2784.00
2023-05-14T11:15:38.257Z,1980.00
2023-05-14T11:16:38.283Z,1864.00
2023-05-14T11:17:38.259Z,1804.00
2023-05-14T11:18:38.280Z,1900.00
2023-05-14T11:19:38.210Z,2272.00
2023-05-14T11:20:38.197Z,2748.00
2023-05-14T11:21:38.312Z,2860.00
2023-05-14T11:22:38.226Z,2688.00
2023-05-14T11:23:38.187Z,1820.00
2023-05-14T11:24:38.157Z,1856.00
2023-05-14T11:25:38.161Z,1892.00
2023-05-14T11:26:38.168Z,2016.00
2023-05-14T11:27:38.126Z,1800.00
2023-05-14T11:28:38.128Z,1856.00
2023-05-14T11:29:38.144Z,2188.00
2023-05-14T11:30:38.085Z,2952.00
2023-05-14T11:31:38.103Z,1784.00
2023-05-14T11:32:38.102Z,1792.00
2023-05-14T11:33:38.056Z,2756.00
2023-05-14T11:34:38.048Z,2056.00
2023-05-14T11:35:38.031Z,1776.00
2023-05-14T11:36:38.019Z,1744.00
2023-05-14T11:37:38.005Z,2876.00
2023-05-14T11:38:38.033Z,2996.00
2023-05-14T11:39:37.981Z,2976.00
2023-05-14T11:40:37.987Z,2996.00
2023-05-14T11:41:37.972Z,2904.00
2023-05-14T11:42:37.960Z,2828.00
2023-05-14T11:43:37.946Z,2876.00
2023-05-14T11:44:37.959Z,2936.00
2023-05-14T11:45:37.923Z,2972.00
2023-05-14T11:46:37.978Z,2880.00
2023-05-14T11:47:37.966Z,2888.00
2023-05-14T11:48:37.885Z,2892.00
2023-05-14T11:49:37.896Z,2888.00
2023-05-14T11:50:37.882Z,2676.00
2023-05-14T11:51:37.859Z,1824.00
2023-05-14T11:52:37.843Z,1672.00
2023-05-14T11:53:37.836Z,1668.00
2023-05-14T11:54:37.845Z,1584.00
2023-05-14T11:55:37.841Z,1672.00
2023-05-14T11:56:37.795Z,1768.00
2023-05-14T11:57:37.784Z,1820.00
2023-05-14T11:58:37.767Z,1864.00
2023-05-14T11:59:37.764Z,2824.00
2023-05-14T12:00:37.763Z,2548.00
2023-05-14T12:01:37.733Z,2756.00
2023-05-14T12:02:37.848Z,2744.00
2023-05-14T12:03:37.895Z,2672.00
2023-05-14T12:04:37.790Z,2560.00
2023-05-14T12:05:37.686Z,2600.00
2023-05-14T12:06:37.702Z,2568.00
2023-05-14T12:07:37.672Z,2668.00
2023-05-14T12:08:37.707Z,1764.00
2023-05-14T12:09:37.653Z,1708.00
2023-05-14T12:10:37.654Z,1748.00
2023-05-14T12:11:37.623Z,1772.00
2023-05-14T12:12:37.717Z,1712.00
2023-05-14T12:13:37.597Z,1604.00
2023-05-14T12:14:37.600Z,1636.00
2023-05-14T12:15:37.582Z,1668.00
2023-05-14T12:16:38.497Z,1684.00
2023-05-14T12:17:37.671Z,1704.00
2023-05-14T12:18:37.678Z,2092.00
2023-05-14T12:19:37.535Z,1744.00
2023-05-14T12:20:37.527Z,2052.00
2023-05-14T12:21:37.583Z,2008.00
2023-05-14T12:22:37.507Z,2032.00
2023-05-14T12:23:37.480Z,1904.00
2023-05-14T12:24:37.498Z,1840.00
2023-05-14T12:25:37.465Z,1856.00
2023-05-14T12:26:37.479Z,1920.00
2023-05-14T12:27:37.479Z,1312.00